Terminal Aerodrome Forecast
Issued by NWS

Home | Current Version | Previous Version | Text Only | Print | Product List | Glossary On
Versions: 1 2 3 4 5 6 7 8 9 10 11 12 13 14 15 16 17 18 19 20 21 22 23 24 25
000
FTUS43 KPAH 241120
TAFCGI
TAF
KCGI 241120Z 2412/2512 15009KT P6SM SCT050 BKN150
     FM241500 17013G23KT P6SM BKN050
     FM242200 18012G22KT P6SM BKN040 PROB30 2422/2504 6SM TSRA
      BKN025CB
     FM250400 17015KT 4SM TSRA BR BKN025CB=

USA.gov is the U.S. government's official web portal to all federal, state and local government web resources and services.